To modify the report, make a selection from each column below and re-run.

Report Type Graduation Filter Grade Filter Gender

(Grade filter for indiv report.)


Course PR Report: Dana Hills HS

The report below currently displays:

  • Individual PR's
  • Grads & Current Runners
  • All Grades
  • Girls
  • 3 miles
  • Grads & Current Runners
All Time Rank Runner Name Grad Year Time Pace PR Date PR Event # of
Races
Graph full race
history on course
(pick up to 15)
1 Mai Koyama 2022 18:47.8 6:16 9/28/19 Dana Hills Invitational 2
2 Sydney Morrow 2022 18:50.2 6:17 9/22/18 Dana Hills Invitational 1
3 Lindsay Michels 2021 19:10.6 6:24 9/28/19 Dana Hills Invitational 3
4 Cece Zhu 2012 19:24.7 6:28 9/25/10 Dana Hills Invitational 2
5 Amelia Jarolim 2021 19:35.8 6:32 9/28/19 Dana Hills Invitational 3
6 Sarah Uriarte 2019 19:41.9 6:34 9/22/18 Dana Hills Invitational 2
7 Anika Renken 2013 20:08.4 6:43 9/26/09 Dana Hills Invitational 1
8 Remeny White 2014 20:09.9 6:43 9/24/11 Dana Hills Invitational 2
9 Luyang Zhang 2021 20:22.9 6:48 9/28/19 Dana Hills Invitational 2
10 Lilian Zhu 2022 20:23.5 6:48 9/28/19 Dana Hills Invitational 2
11 Kate Lee 2020 20:46.9 6:56 9/23/17 Dana Hills Invitational 2
12 Briana Nunez 2016 20:51.6 6:57 9/27/14 Dana Hills Invitational 1
13 Madeline Chin 2013 20:52.5 6:58 9/25/10 Dana Hills Invitational 2
14 Caroline Liu 2018 20:54.6 6:58 9/23/17 Dana Hills Invitational 1
15 Cindy Chan 2012 20:59 7:00 9/24/11 Dana Hills Invitational 2
16 Sara Jan 2011 20:59.8 7:00 9/25/10 Dana Hills Invitational 3
17 Laura Lussier 2012 21:01.4 7:00 9/25/10 Dana Hills Invitational 3
18 Miranda Liu 2022 21:04.7 7:02 9/28/19 Dana Hills Invitational 2
19 Nora Devita 2011 21:06.1 7:02 9/27/08 Dana Hills Invitational 1
20 Amber Gonzalez Pacheco 2020 21:08 7:03 9/28/19 Dana Hills Invitational 2
21 Lily Round 2016 21:11.6 7:04 9/28/13 Dana Hills Invitational 2
22 Kei Shao 2013 21:14.4 7:05 9/24/11 Dana Hills Invitational 1
23 Gabriela Rodriguez 2022 21:19.9 7:07 9/28/19 Dana Hills Invitational 2
24 Kaile Fernandes 2023 21:27.5 7:09 9/28/19 Dana Hills Invitational 1
25 Zoe Detzel 2014 21:28 7:09 9/24/11 Dana Hills Invitational 1
26 Alana Ballagh 2018 21:29.9 7:10 9/27/14 Dana Hills Invitational 2
27 Ke Shao 2013 21:30.1 7:10 9/25/10 Dana Hills Invitational 2
28 Isabel Barbera 2017 21:30.9 7:10 9/28/13 Dana Hills Invitational 1
29 Alanna Narro 2010 21:36.1 7:12 9/27/08 Dana Hills Invitational 1
30 Maaike Wielenga 2016 21:41.6 7:14 9/22/12 Dana Hills Invitational 1
31 Alyssa Mohamadzaden 2016 21:42 7:14 9/28/13 Dana Hills Invitational 2
32 Kate Feldmann 2013 21:49.6 7:17 9/26/09 Dana Hills Invitational 1
33 Quyen Ballagh 2020 21:53.5 7:18 9/24/16 Dana Hills Invitational 1
34 Helena Fu 2018 21:54.4 7:18 9/27/14 Dana Hills Invitational 2
35 Evelyn Beadle 2016 21:56.3 7:19 9/22/12 Dana Hills Invitational 1
36 Lauren Sharkey 2018 21:57.6 7:19 9/27/14 Dana Hills Invitational 2
37 Rachel Lu 2019 21:59.1 7:20 9/26/15 Dana Hills Invitational 1
38 Jessica Hitchcock 2013 21:59.8 7:20 9/26/09 Dana Hills Invitational 1
39 Kathy Lui 2014 22:08 7:23 9/28/13 Dana Hills Invitational 4
40 Kelly Wu 2021 22:14.1 7:25 9/23/17 Dana Hills Invitational 2
41 Fiona Bock 2016 22:16 7:25 9/22/12 Dana Hills Invitational 1
42 Amber Laird 2013 22:16.5 7:26 9/25/10 Dana Hills Invitational 3
43 Jessica Chung 2015 22:17.5 7:26 9/28/13 Dana Hills Invitational 3
44 Amelia Anthony 2018 22:17.6 7:26 9/27/14 Dana Hills Invitational 1
45 Maggie Liu 2015 22:18 7:26 9/24/11 Dana Hills Invitational 2
46 Alexa Esler 2016 22:18.5 7:26 9/22/12 Dana Hills Invitational 1
47 Baily Mckee 2012 22:19.4 7:26 9/27/08 Dana Hills Invitational 1
48 Alexis Velasco 2014 22:24.1 7:28 9/22/12 Dana Hills Invitational 1
49 Maylis Whetsel 2019 22:37.5 7:33 9/24/16 Dana Hills Invitational 1
50 Kira Gabriel 2015 22:40.7 7:34 9/24/11 Dana Hills Invitational 1
51 Claire Foster 2015 22:41.2 7:34 9/24/11 Dana Hills Invitational 1
52 Daniella Lat 2023 22:41.3 7:34 9/28/19 Dana Hills Invitational 1
53 Rebecca Phan 2014 22:41.8 7:34 9/24/11 Dana Hills Invitational 2
54 Maia Thomas 2016 22:46.7 7:36 9/22/12 Dana Hills Invitational 2
55 Mackenzie Chang 2013 22:51.5 7:37 9/24/11 Dana Hills Invitational 3
56 Katherine Conte 2017 22:58.3 7:39 9/26/15 Dana Hills Invitational 1
57 Caroline Liebe 2020 23:00.9 7:40 9/23/17 Dana Hills Invitational 1
58 Amy Choi 2015 23:01 7:40 9/24/11 Dana Hills Invitational 1
59 Taci Chin-robinson 2012 23:05.1 7:42 9/24/11 Dana Hills Invitational 1
60 Destiny Rivera 2020 23:06.8 7:42 9/22/18 Dana Hills Invitational 1
61 Sooji Hong 2012 23:07.3 7:42 9/26/09 Dana Hills Invitational 1
62 Diana Perea 2022 23:13.6 7:45 9/28/19 Dana Hills Invitational 2
63 Sarah Kang 2022 23:14.3 7:45 9/28/19 Dana Hills Invitational 2
64 Alicia Wilgoren 2023 23:22.4 7:47 9/28/19 Dana Hills Invitational 1
65 Natali Lelieur 2018 23:25.3 7:48 9/24/16 Dana Hills Invitational 2
66 Lia Lohr 2012 23:28.1 7:49 9/25/10 Dana Hills Invitational 2
67 Ashley Moon 2013 23:29.1 7:50 9/26/09 Dana Hills Invitational 1
68 Catalina Lee 2011 23:32.3 7:51 9/27/08 Dana Hills Invitational 1
69 Karen Zhu 2016 23:35.1 7:52 9/22/12 Dana Hills Invitational 1
70 Isabel Chin 2013 23:36.2 7:52 9/25/10 Dana Hills Invitational 1
71 Andrea Seet 2014 23:36.4 7:52 9/24/11 Dana Hills Invitational 1
72 Franny Cross 2018 23:36.6 7:52 9/23/17 Dana Hills Invitational 1
73 Jackie Takarabe 2019 23:37.1 7:52 9/24/16 Dana Hills Invitational 1
74 Kira Alford 2013 23:45.4 7:55 9/26/09 Dana Hills Invitational 1
75 Stephanie Warren 2015 23:45.9 7:55 9/24/11 Dana Hills Invitational 1
75 Camille Endacott 2011 23:45.9 7:55 9/27/08 Dana Hills Invitational 1
77 Carmella Shaffer 2019 23:46.9 7:56 9/26/15 Dana Hills Invitational 1
78 Misha Holtz 2014 23:48 7:56 9/24/11 Dana Hills Invitational 1
79 Marta Jerebets 2018 23:51.7 7:57 9/27/14 Dana Hills Invitational 1
80 Lorie Meza 2017 24:04.3 8:01 9/28/13 Dana Hills Invitational 1
81 Lia Lhor 2012 24:11.5 8:04 9/26/09 Dana Hills Invitational 2
82 Lauren Jones 2021 24:12.1 8:04 9/22/18 Dana Hills Invitational 1
82 Maya Gonzalez-Pacheco 2023 24:12.1 8:04 9/28/19 Dana Hills Invitational 1
84 Sydney Lagarce 2023 24:12.4 8:04 9/28/19 Dana Hills Invitational 1
85 Emily Gin 2017 24:17.8 8:06 9/28/13 Dana Hills Invitational 1
85 Mallory Downing 2011 24:17.8 8:06 9/27/08 Dana Hills Invitational 1
87 Sarah Snow 2012 24:20.5 8:07 9/27/08 Dana Hills Invitational 1
88 Tiffany Show 2012 24:20.9 8:07 9/24/11 Dana Hills Invitational 4
89 Vesta Javaheri 2013 24:25 8:08 9/25/10 Dana Hills Invitational 3
90 Katherine Ngan 2015 24:33.3 8:11 9/24/11 Dana Hills Invitational 1
91 Hannah Bae 2022 24:33.5 8:11 9/28/19 Dana Hills Invitational 1
92 Clarissa Paik 2012 24:35.1 8:12 9/27/08 Dana Hills Invitational 1
93 Elaine Hong 2012 24:37.3 8:12 9/24/11 Dana Hills Invitational 1
94 Luciana Ponce De Leon 2014 24:46 8:15 9/25/10 Dana Hills Invitational 1
95 Jessica May 2011 24:48.2 8:16 9/27/08 Dana Hills Invitational 1
96 Ariadne Lyon 2011 24:48.8 8:16 9/27/08 Dana Hills Invitational 1
97 Nicole Endacott 2011 25:11.2 8:24 9/27/08 Dana Hills Invitational 1
98 Dana Lin 2020 25:20 8:27 9/23/17 Dana Hills Invitational 1
99 Cameron Chang 2017 25:32.9 8:31 9/28/13 Dana Hills Invitational 1
100 Sheila Kendall 2010 25:40 8:33 9/26/09 Dana Hills Invitational 1
101 Isabelle Whetsel 2023 26:05.6 8:42 9/28/19 Dana Hills Invitational 1
102 Keren Im 2010 26:14.4 8:45 9/27/08 Dana Hills Invitational 2
103 Lily Dorn 2011 26:17.7 8:46 9/27/08 Dana Hills Invitational 2
104 Susan Rodriguez 2018 26:34.9 8:52 9/24/16 Dana Hills Invitational 1
105 June Kim 2013 26:39.6 8:53 9/24/11 Dana Hills Invitational 1
106 Christina Venegas 2012 27:20.4 9:07 9/27/08 Dana Hills Invitational 1
107 Christine Roh 2016 27:44.9 9:15 9/22/12 Dana Hills Invitational 1
108 Miraya Cortez 2015 27:47.8 9:16 9/24/11 Dana Hills Invitational 1
109 Catherine Lee 2012 27:50.8 9:17 9/27/08 Dana Hills Invitational 1
110 Alexis Frias 2011 28:14.4 9:25 9/27/08 Dana Hills Invitational 1
111 Asha Quibilan 2023 28:21.5 9:27 9/28/19 Dana Hills Invitational 1
112 Oi-man Chiu 2011 29:09.9 9:43 9/25/10 Dana Hills Invitational 1
113 April Jackson 2011 29:31.2 9:50 9/27/08 Dana Hills Invitational 1
114 Kiera Atkinson 2021 29:38.8 9:53 9/28/19 Dana Hills Invitational 1
115 Aimee Fata 2010 32:01.9 10:41 9/27/08 Dana Hills Invitational 1
116 Sora Abu Karash 2021 37:56 12:39 9/23/17 Dana Hills Invitational 1
All Time Rank Runner Name Grad Year Time Pace PR Date PR Event # of
Races
Graph full race
history on course
(pick up to 7)

Note: All columns are sortable by clicking on the column heading.